sensor_id;sensor_type;location;lat;lon;timestamp;temperature;humidity
1091;DHT22;534;48.704;9.122;2022-09-09T03:02:07;17.40;73.30
1091;DHT22;534;48.704;9.122;2022-09-09T03:04:36;17.50;73.20
1091;DHT22;534;48.704;9.122;2022-09-09T03:07:03;17.40;73.20
1091;DHT22;534;48.704;9.122;2022-09-09T03:09:30;17.40;73.30
1091;DHT22;534;48.704;9.122;2022-09-09T03:11:58;17.30;73.70
1091;DHT22;534;48.704;9.122;2022-09-09T03:14:25;17.30;73.70
1091;DHT22;534;48.704;9.122;2022-09-09T03:16:53;17.30;73.90
1091;DHT22;534;48.704;9.122;2022-09-09T03:19:23;17.30;73.80
1091;DHT22;534;48.704;9.122;2022-09-09T03:21:50;17.20;74.20
1091;DHT22;534;48.704;9.122;2022-09-09T03:24:16;17.30;74.50
1091;DHT22;534;48.704;9.122;2022-09-09T03:26:43;17.30;74.00
1091;DHT22;534;48.704;9.122;2022-09-09T03:29:10;17.00;74.50
1091;DHT22;534;48.704;9.122;2022-09-09T03:31:38;17.00;74.40
1091;DHT22;534;48.704;9.122;2022-09-09T03:34:05;17.00;74.60
1091;DHT22;534;48.704;9.122;2022-09-09T03:36:33;16.90;74.90
1091;DHT22;534;48.704;9.122;2022-09-09T03:39:00;17.10;74.70
1091;DHT22;534;48.704;9.122;2022-09-09T03:41:28;17.10;74.70
1091;DHT22;534;48.704;9.122;2022-09-09T03:43:55;17.20;74.50
1091;DHT22;534;48.704;9.122;2022-09-09T03:46:23;17.30;74.50
1091;DHT22;534;48.704;9.122;2022-09-09T03:48:50;17.40;74.40
1091;DHT22;534;48.704;9.122;2022-09-09T03:51:18;17.40;74.20
1091;DHT22;534;48.704;9.122;2022-09-09T03:53:46;17.40;74.10
1091;DHT22;534;48.704;9.122;2022-09-09T03:56:13;17.40;73.80
1091;DHT22;534;48.704;9.122;2022-09-09T03:58:40;17.10;74.50
1091;DHT22;534;48.704;9.122;2022-09-09T04:01:08;16.90;75.30
1091;DHT22;534;48.704;9.122;2022-09-09T04:03:35;17.10;75.20
1091;DHT22;534;48.704;9.122;2022-09-09T04:06:04;17.10;75.10
1091;DHT22;534;48.704;9.122;2022-09-09T04:08:32;17.20;74.80
1091;DHT22;534;48.704;9.122;2022-09-09T04:11:01;17.20;74.80
1091;DHT22;534;48.704;9.122;2022-09-09T04:13:32;17.30;74.70
1091;DHT22;534;48.704;9.122;2022-09-09T04:16:00;17.30;74.50
1091;DHT22;534;48.704;9.122;2022-09-09T04:18:27;17.30;74.60
1091;DHT22;534;48.704;9.122;2022-09-09T04:20:54;17.20;74.40
1091;DHT22;534;48.704;9.122;2022-09-09T04:23:23;17.00;74.90
1091;DHT22;534;48.704;9.122;2022-09-09T04:25:51;16.80;75.50
1091;DHT22;534;48.704;9.122;2022-09-09T04:28:22;16.50;76.50
1091;DHT22;534;48.704;9.122;2022-09-09T04:30:49;16.30;77.60
1091;DHT22;534;48.704;9.122;2022-09-09T04:33:16;16.30;77.70
1091;DHT22;534;48.704;9.122;2022-09-09T04:35:45;16.30;77.70
1091;DHT22;534;48.704;9.122;2022-09-09T04:38:12;16.20;78.00
1091;DHT22;534;48.704;9.122;2022-09-09T04:40:42;16.00;78.40
1091;DHT22;534;48.704;9.122;2022-09-09T04:43:09;16.00;78.70
1091;DHT22;534;48.704;9.122;2022-09-09T04:45:37;16.20;78.40
1091;DHT22;534;48.704;9.122;2022-09-09T04:48:05;16.10;78.60
1091;DHT22;534;48.704;9.122;2022-09-09T04:50:32;16.10;78.40
1091;DHT22;534;48.704;9.122;2022-09-09T04:53:00;16.10;78.50
1091;DHT22;534;48.704;9.122;2022-09-09T04:55:27;16.20;78.30
1091;DHT22;534;48.704;9.122;2022-09-09T04:57:54;16.20;78.40
1091;DHT22;534;48.704;9.122;2022-09-09T05:00:20;16.20;78.30
1091;DHT22;534;48.704;9.122;2022-09-09T05:02:48;16.40;78.20
1091;DHT22;534;48.704;9.122;2022-09-09T05:05:15;16.60;77.50
1091;DHT22;534;48.704;9.122;2022-09-09T05:07:42;16.70;77.30
1091;DHT22;534;48.704;9.122;2022-09-09T05:10:09;16.80;77.10
1091;DHT22;534;48.704;9.122;2022-09-09T05:12:35;16.80;77.10
1091;DHT22;534;48.704;9.122;2022-09-09T05:15:03;16.90;76.70
1091;DHT22;534;48.704;9.122;2022-09-09T05:17:30;17.00;76.40
1091;DHT22;534;48.704;9.122;2022-09-09T05:19:58;17.20;75.80
1091;DHT22;534;48.704;9.122;2022-09-09T05:22:24;17.10;76.00
1091;DHT22;534;48.704;9.122;2022-09-09T05:24:51;17.20;76.00
1091;DHT22;534;48.704;9.122;2022-09-09T05:27:18;17.40;75.70
1091;DHT22;534;48.704;9.122;2022-09-09T05:29:45;17.50;74.60
1091;DHT22;534;48.704;9.122;2022-09-09T05:32:12;17.50;75.10
1091;DHT22;534;48.704;9.122;2022-09-09T05:34:40;17.60;74.70
1091;DHT22;534;48.704;9.122;2022-09-09T05:37:08;17.80;74.30
1091;DHT22;534;48.704;9.122;2022-09-09T05:39:35;18.00;73.80
1091;DHT22;534;48.704;9.122;2022-09-09T05:42:03;18.00;73.20
1091;DHT22;534;48.704;9.122;2022-09-09T05:44:30;18.20;73.20
1091;DHT22;534;48.704;9.122;2022-09-09T05:46:57;18.10;73.20
1091;DHT22;534;48.704;9.122;2022-09-09T05:49:24;18.20;73.50
1091;DHT22;534;48.704;9.122;2022-09-09T05:51:50;18.10;73.10
1091;DHT22;534;48.704;9.122;2022-09-09T05:54:19;18.00;73.40
1091;DHT22;534;48.704;9.122;2022-09-09T05:56:46;17.90;73.50
1091;DHT22;534;48.704;9.122;2022-09-09T05:59:15;17.90;73.80
1091;DHT22;534;48.704;9.122;2022-09-09T06:01:41;17.60;74.20
1091;DHT22;534;48.704;9.122;2022-09-09T06:04:08;17.50;75.20
1091;DHT22;534;48.704;9.122;2022-09-09T06:06:36;17.50;75.40
1091;DHT22;534;48.704;9.122;2022-09-09T06:09:06;17.60;75.30
1091;DHT22;534;48.704;9.122;2022-09-09T06:11:39;17.60;75.40
1091;DHT22;534;48.704;9.122;2022-09-09T06:14:06;17.60;75.60
1091;DHT22;534;48.704;9.122;2022-09-09T06:16:33;17.40;75.90
1091;DHT22;534;48.704;9.122;2022-09-09T06:19:01;17.40;76.20
1091;DHT22;534;48.704;9.122;2022-09-09T06:21:30;17.50;75.90
1091;DHT22;534;48.704;9.122;2022-09-09T06:23:58;17.40;76.30
1091;DHT22;534;48.704;9.122;2022-09-09T06:26:26;17.50;76.30
1091;DHT22;534;48.704;9.122;2022-09-09T06:28:55;17.60;76.20
1091;DHT22;534;48.704;9.122;2022-09-09T06:31:24;17.70;76.00
1091;DHT22;534;48.704;9.122;2022-09-09T06:33:53;17.70;76.20
1091;DHT22;534;48.704;9.122;2022-09-09T06:36:21;17.80;76.20
1091;DHT22;534;48.704;9.122;2022-09-09T06:38:48;18.00;76.00
1091;DHT22;534;48.704;9.122;2022-09-09T06:41:17;18.10;75.60
1091;DHT22;534;48.704;9.122;2022-09-09T06:43:45;18.30;75.90
1091;DHT22;534;48.704;9.122;2022-09-09T06:46:14;18.40;75.40
1091;DHT22;534;48.704;9.122;2022-09-09T06:48:43;18.40;75.00
1091;DHT22;534;48.704;9.122;2022-09-09T06:51:12;18.20;75.00
1091;DHT22;534;48.704;9.122;2022-09-09T06:53:40;18.00;75.40
1091;DHT22;534;48.704;9.122;2022-09-09T06:56:19;17.80;76.50
1091;DHT22;534;48.704;9.122;2022-09-09T06:58:47;17.70;77.00
1091;DHT22;534;48.704;9.122;2022-09-09T07:01:17;17.90;77.50
1091;DHT22;534;48.704;9.122;2022-09-09T07:03:46;18.10;76.60
1091;DHT22;534;48.704;9.122;2022-09-09T07:06:17;18.30;75.80
1091;DHT22;534;48.704;9.122;2022-09-09T07:08:48;18.40;75.70
1091;DHT22;534;48.704;9.122;2022-09-09T07:11:15;18.70;75.30
1091;DHT22;534;48.704;9.122;2022-09-09T07:13:42;19.00;73.80
1091;DHT22;534;48.704;9.122;2022-09-09T07:16:10;19.20;73.90
1091;DHT22;534;48.704;9.122;2022-09-09T07:18:39;19.20;72.80
1091;DHT22;534;48.704;9.122;2022-09-09T07:21:08;19.10;73.40
1091;DHT22;534;48.704;9.122;2022-09-09T07:23:35;19.10;73.60
1091;DHT22;534;48.704;9.122;2022-09-09T07:26:02;19.20;74.10
1091;DHT22;534;48.704;9.122;2022-09-09T07:28:33;19.20;73.50
1091;DHT22;534;48.704;9.122;2022-09-09T07:31:01;19.30;73.40
1091;DHT22;534;48.704;9.122;2022-09-09T07:33:30;19.20;73.10
1091;DHT22;534;48.704;9.122;2022-09-09T07:36:04;19.30;74.00
1091;DHT22;534;48.704;9.122;2022-09-09T07:38:33;19.60;73.30
1091;DHT22;534;48.704;9.122;2022-09-09T07:41:05;20.10;72.90
1091;DHT22;534;48.704;9.122;2022-09-09T07:43:33;20.30;70.40
1091;DHT22;534;48.704;9.122;2022-09-09T07:46:00;20.30;70.90
1091;DHT22;534;48.704;9.122;2022-09-09T07:48:28;20.40;71.30
1091;DHT22;534;48.704;9.122;2022-09-09T07:51:08;20.80;69.70
1091;DHT22;534;48.704;9.122;2022-09-09T07:53:36;20.90;70.10
1091;DHT22;534;48.704;9.122;2022-09-09T07:56:05;21.10;69.40
1091;DHT22;534;48.704;9.122;2022-09-09T07:58:32;21.20;69.20
1091;DHT22;534;48.704;9.122;2022-09-09T08:00:59;21.20;69.20
1091;DHT22;534;48.704;9.122;2022-09-09T08:03:26;21.10;68.60
1091;DHT22;534;48.704;9.122;2022-09-09T08:05:53;21.20;68.70
1091;DHT22;534;48.704;9.122;2022-09-09T08:08:28;21.30;68.40
1091;DHT22;534;48.704;9.122;2022-09-09T08:11:02;21.60;68.20
1091;DHT22;534;48.704;9.122;2022-09-09T08:13:29;21.70;66.80
1091;DHT22;534;48.704;9.122;2022-09-09T08:16:04;21.60;68.00
1091;DHT22;534;48.704;9.122;2022-09-09T08:18:31;21.70;67.00
1091;DHT22;534;48.704;9.122;2022-09-09T08:20:57;21.80;66.40
1091;DHT22;534;48.704;9.122;2022-09-09T08:23:25;21.80;66.20
1091;DHT22;534;48.704;9.122;2022-09-09T08:25:53;22.00;67.20
1091;DHT22;534;48.704;9.122;2022-09-09T08:28:20;22.30;65.30
1091;DHT22;534;48.704;9.122;2022-09-09T08:30:47;21.90;66.70
1091;DHT22;534;48.704;9.122;2022-09-09T08:33:14;22.00;66.00
1091;DHT22;534;48.704;9.122;2022-09-09T08:35:49;22.10;65.20
1091;DHT22;534;48.704;9.122;2022-09-09T08:38:16;22.00;66.20
1091;DHT22;534;48.704;9.122;2022-09-09T08:40:45;21.70;65.90
1091;DHT22;534;48.704;9.122;2022-09-09T08:43:18;21.60;66.40
1091;DHT22;534;48.704;9.122;2022-09-09T08:45:52;21.90;65.30
1091;DHT22;534;48.704;9.122;2022-09-09T08:48:36;21.70;67.30
1091;DHT22;534;48.704;9.122;2022-09-09T08:51:06;21.90;65.60
1091;DHT22;534;48.704;9.122;2022-09-09T08:53:38;21.90;67.50
1091;DHT22;534;48.704;9.122;2022-09-09T08:56:10;22.10;64.50
1091;DHT22;534;48.704;9.122;2022-09-09T08:58:45;22.10;65.20
1091;DHT22;534;48.704;9.122;2022-09-09T09:01:25;22.00;65.70
1091;DHT22;534;48.704;9.122;2022-09-09T09:04:00;22.00;66.30
1091;DHT22;534;48.704;9.122;2022-09-09T09:06:42;22.30;65.40
1091;DHT22;534;48.704;9.122;2022-09-09T09:09:17;22.30;63.50
1091;DHT22;534;48.704;9.122;2022-09-09T09:11:49;22.20;64.10
1091;DHT22;534;48.704;9.122;2022-09-09T09:14:21;22.30;64.40
1091;DHT22;534;48.704;9.122;2022-09-09T09:16:52;22.10;65.60
1091;DHT22;534;48.704;9.122;2022-09-09T09:19:19;21.90;67.80
1091;DHT22;534;48.704;9.122;2022-09-09T09:21:51;21.70;67.50
1091;DHT22;534;48.704;9.122;2022-09-09T09:24:20;21.40;68.20
1091;DHT22;534;48.704;9.122;2022-09-09T09:26:50;20.70;70.40
1091;DHT22;534;48.704;9.122;2022-09-09T09:29:20;20.00;71.60
1091;DHT22;534;48.704;9.122;2022-09-09T09:31:52;19.50;73.20
1091;DHT22;534;48.704;9.122;2022-09-09T09:34:21;19.50;74.50
1091;DHT22;534;48.704;9.122;2022-09-09T09:36:53;19.60;75.40
1091;DHT22;534;48.704;9.122;2022-09-09T09:39:25;19.80;76.40
1091;DHT22;534;48.704;9.122;2022-09-09T09:41:53;20.20;74.90
1091;DHT22;534;48.704;9.122;2022-09-09T09:44:27;20.40;75.80
1091;DHT22;534;48.704;9.122;2022-09-09T09:47:06;20.40;73.20
1091;DHT22;534;48.704;9.122;2022-09-09T09:49:33;20.50;72.90
1091;DHT22;534;48.704;9.122;2022-09-09T09:52:01;20.30;73.60
1091;DHT22;534;48.704;9.122;2022-09-09T09:54:29;20.40;75.10
1091;DHT22;534;48.704;9.122;2022-09-09T09:57:06;20.50;75.50
1091;DHT22;534;48.704;9.122;2022-09-09T09:59:35;20.60;76.20
1091;DHT22;534;48.704;9.122;2022-09-09T10:02:19;20.80;75.80
1091;DHT22;534;48.704;9.122;2022-09-09T10:05:00;21.00;75.60
1091;DHT22;534;48.704;9.122;2022-09-09T10:07:27;21.20;75.40
1091;DHT22;534;48.704;9.122;2022-09-09T10:09:56;21.40;74.70
1091;DHT22;534;48.704;9.122;2022-09-09T10:12:32;21.70;74.70
1091;DHT22;534;48.704;9.122;2022-09-09T10:15:06;21.90;73.20
1091;DHT22;534;48.704;9.122;2022-09-09T10:17:42;21.90;73.50
1091;DHT22;534;48.704;9.122;2022-09-09T10:20:25;21.90;74.30
1091;DHT22;534;48.704;9.122;2022-09-09T10:23:02;21.80;74.90
1091;DHT22;534;48.704;9.122;2022-09-09T10:25:43;22.10;72.90
1091;DHT22;534;48.704;9.122;2022-09-09T10:31:24;22.30;72.10
1091;DHT22;534;48.704;9.122;2022-09-09T10:33:58;22.20;74.20
1091;DHT22;534;48.704;9.122;2022-09-09T10:36:28;22.40;70.40
1091;DHT22;534;48.704;9.122;2022-09-09T10:38:59;22.60;71.10
1091;DHT22;534;48.704;9.122;2022-09-09T10:41:42;22.70;71.00
1091;DHT22;534;48.704;9.122;2022-09-09T10:44:41;22.70;69.50
1091;DHT22;534;48.704;9.122;2022-09-09T10:47:32;22.40;71.00
1091;DHT22;534;48.704;9.122;2022-09-09T10:50:34;22.50;71.30
1091;DHT22;534;48.704;9.122;2022-09-09T10:53:11;22.60;70.50
1091;DHT22;534;48.704;9.122;2022-09-09T10:55:41;22.80;70.20
1091;DHT22;534;48.704;9.122;2022-09-09T10:58:13;22.90;70.10
1091;DHT22;534;48.704;9.122;2022-09-09T11:00:43;23.00;68.90
1091;DHT22;534;48.704;9.122;2022-09-09T11:03:18;22.90;68.20
1091;DHT22;534;48.704;9.122;2022-09-09T11:05:49;22.90;68.20
1091;DHT22;534;48.704;9.122;2022-09-09T11:08:19;23.00;67.50
1091;DHT22;534;48.704;9.122;2022-09-09T11:10:51;23.20;67.00
1091;DHT22;534;48.704;9.122;2022-09-09T11:13:24;23.20;65.30
1091;DHT22;534;48.704;9.122;2022-09-09T11:15:56;23.10;65.90
1091;DHT22;534;48.704;9.122;2022-09-09T11:18:28;23.10;66.20
1091;DHT22;534;48.704;9.122;2022-09-09T11:20:59;22.80;64.50
1091;DHT22;534;48.704;9.122;2022-09-09T11:23:32;22.50;65.20
1091;DHT22;534;48.704;9.122;2022-09-09T11:26:07;22.00;63.80
1091;DHT22;534;48.704;9.122;2022-09-09T11:28:50;21.50;64.10
1091;DHT22;534;48.704;9.122;2022-09-09T11:31:32;21.20;64.10
1091;DHT22;534;48.704;9.122;2022-09-09T11:34:17;21.00;63.50
1091;DHT22;534;48.704;9.122;2022-09-09T11:37:13;20.80;64.70
1091;DHT22;534;48.704;9.122;2022-09-09T11:39:58;20.60;65.80
1091;DHT22;534;48.704;9.122;2022-09-09T11:42:30;20.50;65.20
1091;DHT22;534;48.704;9.122;2022-09-09T11:44:57;20.50;64.50
1091;DHT22;534;48.704;9.122;2022-09-09T11:47:34;20.50;64.60
1091;DHT22;534;48.704;9.122;2022-09-09T11:50:31;20.60;64.30
1091;DHT22;534;48.704;9.122;2022-09-09T11:53:19;20.60;63.80
1091;DHT22;534;48.704;9.122;2022-09-09T11:56:07;20.70;63.70
1091;DHT22;534;48.704;9.122;2022-09-09T11:58:38;21.10;62.80
1091;DHT22;534;48.704;9.122;2022-09-09T12:01:37;21.30;61.90
1091;DHT22;534;48.704;9.122;2022-09-09T12:04:32;21.00;62.40
1091;DHT22;534;48.704;9.122;2022-09-09T12:07:03;20.80;63.40
1091;DHT22;534;48.704;9.122;2022-09-09T12:09:38;20.90;63.90
1091;DHT22;534;48.704;9.122;2022-09-09T12:12:21;21.40;62.80
1091;DHT22;534;48.704;9.122;2022-09-09T12:15:16;21.50;62.20
1091;DHT22;534;48.704;9.122;2022-09-09T12:17:48;21.90;62.20
1091;DHT22;534;48.704;9.122;2022-09-09T12:20:17;22.30;60.20
1091;DHT22;534;48.704;9.122;2022-09-09T12:22:58;22.70;59.30
1091;DHT22;534;48.704;9.122;2022-09-09T12:25:33;22.70;58.60
1091;DHT22;534;48.704;9.122;2022-09-09T12:28:06;22.70;56.60
1091;DHT22;534;48.704;9.122;2022-09-09T12:30:42;22.90;57.20
1091;DHT22;534;48.704;9.122;2022-09-09T12:33:17;23.40;55.70
1091;DHT22;534;48.704;9.122;2022-09-09T12:35:48;23.60;53.80
1091;DHT22;534;48.704;9.122;2022-09-09T12:38:29;23.50;54.30
1091;DHT22;534;48.704;9.122;2022-09-09T12:40:58;23.40;56.30
1091;DHT22;534;48.704;9.122;2022-09-09T12:43:27;23.00;55.30
1091;DHT22;534;48.704;9.122;2022-09-09T12:45:56;22.40;57.80
1091;DHT22;534;48.704;9.122;2022-09-09T12:48:30;21.90;60.20
1091;DHT22;534;48.704;9.122;2022-09-09T12:50:58;21.70;60.50
1091;DHT22;534;48.704;9.122;2022-09-09T12:53:29;21.80;61.00
1091;DHT22;534;48.704;9.122;2022-09-09T12:55:59;21.80;61.60
1091;DHT22;534;48.704;9.122;2022-09-09T12:58:28;21.70;61.30
1091;DHT22;534;48.704;9.122;2022-09-09T13:00:59;21.70;63.10
1091;DHT22;534;48.704;9.122;2022-09-09T13:03:26;21.80;62.40
1091;DHT22;534;48.704;9.122;2022-09-09T13:05:57;21.80;61.00
1091;DHT22;534;48.704;9.122;2022-09-09T13:08:27;21.40;61.10
1091;DHT22;534;48.704;9.122;2022-09-09T13:10:55;21.50;61.30
1091;DHT22;534;48.704;9.122;2022-09-09T13:13:26;21.40;60.20
1091;DHT22;534;48.704;9.122;2022-09-09T13:15:57;21.60;61.20
1091;DHT22;534;48.704;9.122;2022-09-09T13:18:27;21.80;60.70
1091;DHT22;534;48.704;9.122;2022-09-09T13:20:55;22.30;61.60
1091;DHT22;534;48.704;9.122;2022-09-09T13:23:28;22.80;58.40
1091;DHT22;534;48.704;9.122;2022-09-09T13:25:57;23.30;56.90
1091;DHT22;534;48.704;9.122;2022-09-09T13:28:29;23.70;54.70
1091;DHT22;534;48.704;9.122;2022-09-09T13:30:57;23.90;54.30
1091;DHT22;534;48.704;9.122;2022-09-09T13:33:32;23.80;53.60
1091;DHT22;534;48.704;9.122;2022-09-09T13:36:01;23.60;54.50
1091;DHT22;534;48.704;9.122;2022-09-09T13:38:32;23.90;55.40
1091;DHT22;534;48.704;9.122;2022-09-09T13:41:01;23.90;55.10
1091;DHT22;534;48.704;9.122;2022-09-09T13:43:31;23.80;55.10
1091;DHT22;534;48.704;9.122;2022-09-09T13:46:00;23.70;54.90
1091;DHT22;534;48.704;9.122;2022-09-09T13:48:27;23.90;56.30
1091;DHT22;534;48.704;9.122;2022-09-09T13:51:03;24.40;54.70
1091;DHT22;534;48.704;9.122;2022-09-09T13:53:32;24.60;53.80
1091;DHT22;534;48.704;9.122;2022-09-09T13:55:59;24.80;54.50
1091;DHT22;534;48.704;9.122;2022-09-09T13:58:27;24.90;53.30
1091;DHT22;534;48.704;9.122;2022-09-09T14:00:54;24.80;52.60
1091;DHT22;534;48.704;9.122;2022-09-09T14:03:21;24.60;52.60
1091;DHT22;534;48.704;9.122;2022-09-09T14:05:48;24.50;52.20
1091;DHT22;534;48.704;9.122;2022-09-09T14:08:23;24.70;52.80
1091;DHT22;534;48.704;9.122;2022-09-09T14:10:51;24.90;53.00
1091;DHT22;534;48.704;9.122;2022-09-09T14:13:19;25.40;53.00
1091;DHT22;534;48.704;9.122;2022-09-09T14:15:48;25.60;50.20
1091;DHT22;534;48.704;9.122;2022-09-09T14:18:15;25.90;49.50
1091;DHT22;534;48.704;9.122;2022-09-09T14:20:42;26.30;48.40
1091;DHT22;534;48.704;9.122;2022-09-09T14:23:11;26.00;47.70
1091;DHT22;534;48.704;9.122;2022-09-09T14:25:40;25.40;48.40
1091;DHT22;534;48.704;9.122;2022-09-09T14:28:11;25.60;48.90
1091;DHT22;534;48.704;9.122;2022-09-09T14:30:39;26.30;48.60
1091;DHT22;534;48.704;9.122;2022-09-09T14:33:10;27.10;45.70
1091;DHT22;534;48.704;9.122;2022-09-09T14:35:38;28.20;43.50
1091;DHT22;534;48.704;9.122;2022-09-09T14:38:06;28.60;43.60
1091;DHT22;534;48.704;9.122;2022-09-09T14:40:34;29.20;41.20
1091;DHT22;534;48.704;9.122;2022-09-09T14:43:01;30.00;39.90
1091;DHT22;534;48.704;9.122;2022-09-09T14:45:29;29.80;40.30
1091;DHT22;534;48.704;9.122;2022-09-09T14:47:55;30.10;39.70
1091;DHT22;534;48.704;9.122;2022-09-09T14:50:23;30.30;39.40
1091;DHT22;534;48.704;9.122;2022-09-09T14:52:50;31.20;38.20
1091;DHT22;534;48.704;9.122;2022-09-09T14:55:16;31.50;37.80
1091;DHT22;534;48.704;9.122;2022-09-09T14:57:43;31.40;38.20
1091;DHT22;534;48.704;9.122;2022-09-09T15:00:11;32.10;37.60
1091;DHT22;534;48.704;9.122;2022-09-09T15:02:39;32.60;36.60
1091;DHT22;534;48.704;9.122;2022-09-09T15:05:07;32.70;36.90
1091;DHT22;534;48.704;9.122;2022-09-09T15:07:33;32.90;36.20
1091;DHT22;534;48.704;9.122;2022-09-09T15:10:01;32.90;36.50
1091;DHT22;534;48.704;9.122;2022-09-09T15:12:28;32.90;36.40
1091;DHT22;534;48.704;9.122;2022-09-09T15:14:55;32.80;36.70
1091;DHT22;534;48.704;9.122;2022-09-09T15:17:22;32.50;37.40
1091;DHT22;534;48.704;9.122;2022-09-09T15:19:51;31.40;38.20
1091;DHT22;534;48.704;9.122;2022-09-09T15:22:18;30.30;39.90
1091;DHT22;534;48.704;9.122;2022-09-09T15:24:44;30.30;40.40
1091;DHT22;534;48.704;9.122;2022-09-09T15:27:11;30.10;40.70
1091;DHT22;534;48.704;9.122;2022-09-09T15:29:39;28.60;43.00
1091;DHT22;534;48.704;9.122;2022-09-09T15:32:07;27.60;44.60
1091;DHT22;534;48.704;9.122;2022-09-09T15:34:33;26.90;46.00
1091;DHT22;534;48.704;9.122;2022-09-09T15:37:01;26.30;48.00
1091;DHT22;534;48.704;9.122;2022-09-09T15:39:28;25.50;48.50
1091;DHT22;534;48.704;9.122;2022-09-09T15:41:55;24.90;48.70
1091;DHT22;534;48.704;9.122;2022-09-09T15:44:21;24.20;50.10
1091;DHT22;534;48.704;9.122;2022-09-09T15:46:51;23.70;50.40
1091;DHT22;534;48.704;9.122;2022-09-09T15:49:21;23.20;51.70
1091;DHT22;534;48.704;9.122;2022-09-09T15:51:51;22.90;51.90
1091;DHT22;534;48.704;9.122;2022-09-09T15:54:21;22.90;52.50
1091;DHT22;534;48.704;9.122;2022-09-09T15:56:51;22.60;53.10
1091;DHT22;534;48.704;9.122;2022-09-09T15:59:20;22.50;53.10
1091;DHT22;534;48.704;9.122;2022-09-09T16:01:47;22.50;53.20
1091;DHT22;534;48.704;9.122;2022-09-09T16:04:15;22.50;53.30
1091;DHT22;534;48.704;9.122;2022-09-09T16:06:48;22.40;54.00
1091;DHT22;534;48.704;9.122;2022-09-09T16:09:15;22.30;53.80
1091;DHT22;534;48.704;9.122;2022-09-09T16:11:43;22.10;55.00
1091;DHT22;534;48.704;9.122;2022-09-09T16:14:10;22.10;54.70
1091;DHT22;534;48.704;9.122;2022-09-09T16:16:37;22.10;55.10
1091;DHT22;534;48.704;9.122;2022-09-09T16:19:05;22.10;54.50
1091;DHT22;534;48.704;9.122;2022-09-09T16:21:34;22.10;54.80
1091;DHT22;534;48.704;9.122;2022-09-09T16:24:03;22.10;55.20
1091;DHT22;534;48.704;9.122;2022-09-09T16:26:32;22.10;55.00
1091;DHT22;534;48.704;9.122;2022-09-09T16:29:00;22.10;55.20
1091;DHT22;534;48.704;9.122;2022-09-09T16:31:28;22.10;54.80
1091;DHT22;534;48.704;9.122;2022-09-09T16:33:56;22.00;55.30
1091;DHT22;534;48.704;9.122;2022-09-09T16:36:24;21.90;56.10
1091;DHT22;534;48.704;9.122;2022-09-09T16:38:52;21.90;56.10
1091;DHT22;534;48.704;9.122;2022-09-09T16:41:20;21.80;57.60
1091;DHT22;534;48.704;9.122;2022-09-09T16:43:47;21.60;58.40
1091;DHT22;534;48.704;9.122;2022-09-09T16:46:20;21.50;59.10
1091;DHT22;534;48.704;9.122;2022-09-09T16:48:47;21.40;60.10
1091;DHT22;534;48.704;9.122;2022-09-09T16:51:16;21.30;59.40
1091;DHT22;534;48.704;9.122;2022-09-09T16:53:43;21.30;58.90
1091;DHT22;534;48.704;9.122;2022-09-09T16:56:13;21.50;59.80
1091;DHT22;534;48.704;9.122;2022-09-09T16:58:40;21.40;58.30
1091;DHT22;534;48.704;9.122;2022-09-09T17:01:09;21.20;58.20
1091;DHT22;534;48.704;9.122;2022-09-09T17:03:39;21.20;58.10
1091;DHT22;534;48.704;9.122;2022-09-09T17:06:09;21.20;58.30
1091;DHT22;534;48.704;9.122;2022-09-09T17:08:37;21.30;58.10
1091;DHT22;534;48.704;9.122;2022-09-09T17:11:12;21.30;57.00
1091;DHT22;534;48.704;9.122;2022-09-09T17:13:40;21.40;56.90
1091;DHT22;534;48.704;9.122;2022-09-09T17:16:07;21.30;56.80
1091;DHT22;534;48.704;9.122;2022-09-09T17:18:34;21.30;56.90
1091;DHT22;534;48.704;9.122;2022-09-09T17:21:04;21.40;57.20
1091;DHT22;534;48.704;9.122;2022-09-09T17:23:32;21.50;57.40
1091;DHT22;534;48.704;9.122;2022-09-09T17:25:59;21.50;57.10
1091;DHT22;534;48.704;9.122;2022-09-09T17:28:27;21.40;57.20
1091;DHT22;534;48.704;9.122;2022-09-09T17:30:57;21.30;57.60
1091;DHT22;534;48.704;9.122;2022-09-09T17:33:23;21.40;57.90
1091;DHT22;534;48.704;9.122;2022-09-09T17:35:51;21.40;58.30
1091;DHT22;534;48.704;9.122;2022-09-09T17:38:19;21.40;58.10
1091;DHT22;534;48.704;9.122;2022-09-09T17:40:47;21.30;58.30
1091;DHT22;534;48.704;9.122;2022-09-09T17:43:14;21.20;58.60
1091;DHT22;534;48.704;9.122;2022-09-09T17:45:41;21.20;58.70
1091;DHT22;534;48.704;9.122;2022-09-09T17:48:08;21.30;58.80
1091;DHT22;534;48.704;9.122;2022-09-09T17:50:35;21.10;59.10
1091;DHT22;534;48.704;9.122;2022-09-09T17:53:02;21.00;59.60
1091;DHT22;534;48.704;9.122;2022-09-09T17:55:30;20.80;59.90
1091;DHT22;534;48.704;9.122;2022-09-09T17:57:58;20.80;60.30
1091;DHT22;534;48.704;9.122;2022-09-09T18:00:25;20.80;60.10
1091;DHT22;534;48.704;9.122;2022-09-09T18:02:52;20.70;60.40
1091;DHT22;534;48.704;9.122;2022-09-09T18:05:19;20.70;60.70
1091;DHT22;534;48.704;9.122;2022-09-09T18:07:46;20.70;61.00
1091;DHT22;534;48.704;9.122;2022-09-09T18:10:13;20.70;61.00
1091;DHT22;534;48.704;9.122;2022-09-09T18:12:41;20.50;61.10
1091;DHT22;534;48.704;9.122;2022-09-09T18:15:08;20.40;61.40
1091;DHT22;534;48.704;9.122;2022-09-09T18:17:37;20.20;62.10
1091;DHT22;534;48.704;9.122;2022-09-09T18:20:04;20.10;62.80
1091;DHT22;534;48.704;9.122;2022-09-09T18:22:32;20.10;63.30
1091;DHT22;534;48.704;9.122;2022-09-09T18:24:59;20.20;63.20
1091;DHT22;534;48.704;9.122;2022-09-09T18:27:25;20.30;63.10
1091;DHT22;534;48.704;9.122;2022-09-09T18:29:54;20.20;63.40
1091;DHT22;534;48.704;9.122;2022-09-09T18:32:21;20.00;64.00
1091;DHT22;534;48.704;9.122;2022-09-09T18:34:47;19.90;64.50
1091;DHT22;534;48.704;9.122;2022-09-09T18:37:15;19.80;64.70
1091;DHT22;534;48.704;9.122;2022-09-09T18:39:42;19.90;64.70
1091;DHT22;534;48.704;9.122;2022-09-09T18:42:09;19.80;64.80
1091;DHT22;534;48.704;9.122;2022-09-09T18:44:37;19.90;64.90
1091;DHT22;534;48.704;9.122;2022-09-09T18:47:05;19.90;64.70
1091;DHT22;534;48.704;9.122;2022-09-09T18:49:33;20.00;64.80
1091;DHT22;534;48.704;9.122;2022-09-09T18:52:00;20.10;64.90
1091;DHT22;534;48.704;9.122;2022-09-09T18:54:29;20.10;64.90
1091;DHT22;534;48.704;9.122;2022-09-09T18:56:57;20.20;65.00
1091;DHT22;534;48.704;9.122;2022-09-09T18:59:26;20.20;64.70
1091;DHT22;534;48.704;9.122;2022-09-09T19:01:53;19.90;65.50
1091;DHT22;534;48.704;9.122;2022-09-09T19:04:23;19.70;66.10
1091;DHT22;534;48.704;9.122;2022-09-09T19:06:50;19.70;66.20
1091;DHT22;534;48.704;9.122;2022-09-09T19:09:22;19.70;66.50
1091;DHT22;534;48.704;9.122;2022-09-09T19:11:49;19.70;66.50
1091;DHT22;534;48.704;9.122;2022-09-09T19:14:16;19.70;66.60
1091;DHT22;534;48.704;9.122;2022-09-09T19:16:44;19.60;67.10
1091;DHT22;534;48.704;9.122;2022-09-09T19:19:15;19.50;67.30
1091;DHT22;534;48.704;9.122;2022-09-09T19:21:43;19.60;67.30
1091;DHT22;534;48.704;9.122;2022-09-09T19:24:12;19.60;67.10
1091;DHT22;534;48.704;9.122;2022-09-09T19:26:41;19.60;67.10
1091;DHT22;534;48.704;9.122;2022-09-09T19:29:09;19.50;67.10
1091;DHT22;534;48.704;9.122;2022-09-09T19:31:36;19.50;67.30
1091;DHT22;534;48.704;9.122;2022-09-09T19:34:03;19.50;66.90
1091;DHT22;534;48.704;9.122;2022-09-09T19:36:30;19.40;67.20
1091;DHT22;534;48.704;9.122;2022-09-09T19:38:59;19.50;67.20